Time;durP1;ratioP1;P1;durP2;ratioP2;P2;SDS_P1;SDS_P2;PMS_P1;PMS_P2;Temp;Humidity;BMP_temperature;BMP_pressure;BME280_temperature;BME280_humidity;BME280_pressure;Samples;Min_cycle;Max_cycle;Signal;HPM_P1;HPM_P2
2023/10/27 00:06:10;;;;;;;19.10;11.50;;;;;;;10.34;84.22;96823.88;224259;1294;22552;-80
2023/10/27 00:12:50;;;;;;;15.50;10.30;;;;;;;10.17;84.26;96822.73;224399;1294;22627;-80
2023/10/27 00:18:55;;;;;;;;;;;;;;;;;;;;;
2023/10/27 00:25:16;;;;;;;15.80;10.60;;;;;;;9.80;84.64;96828.48;224429;1294;22766;-80
2023/10/27 00:31:53;;;;;;;;;;;;;;;;;;;;;
2023/10/27 00:37:41;;;;;;;;;;;;;;;;;;;;;
2023/10/27 00:43:07;;;;;;;15.20;10.90;;;;;;;9.34;85.34;96814.90;222669;1295;23099;-80
2023/10/27 00:48:46;;;;;;;24.20;12.90;;;;;;;9.22;85.33;96805.70;222161;1302;22622;-81
2023/10/27 00:53:53;;;;;;;16.80;11.80;;;;;;;9.10;85.41;96799.89;222136;1301;22582;-80
2023/10/27 00:59:34;;;;;;;;;;;;;;;;;;;;;
2023/10/27 01:05:01;;;;;;;;;;;;;;;;;;;;;
2023/10/27 01:10:40;;;;;;;17.00;13.10;;;;;;;8.76;85.97;96788.17;222209;1296;24264;-81
2023/10/27 01:15:59;;;;;;;23.90;15.10;;;;;;;8.67;85.88;96786.61;223876;1296;22559;-81
2023/10/27 01:22:05;;;;;;;17.60;14.80;;;;;;;8.57;86.12;96784.36;223892;1296;22590;-80
2023/10/27 01:27:46;;;;;;;15.90;13.40;;;;;;;8.47;85.92;96778.78;223505;1289;22562;-81
2023/10/27 01:33:50;;;;;;;;;;;;;;;;;;;;;
2023/10/27 01:39:44;;;;;;;;;;;;;;;;;;;;;
2023/10/27 01:46:28;;;;;;;18.40;13.40;;;;;;;8.21;86.69;96756.74;218132;1303;5390024;-81
2023/10/27 01:52:18;;;;;;;17.70;13.30;;;;;;;8.12;86.97;96755.48;222642;1299;24282;-80
2023/10/27 01:58:24;;;;;;;16.70;13.30;;;;;;;8.03;87.07;96744.86;223674;1296;22591;-81
2023/10/27 02:03:51;;;;;;;16.00;12.30;;;;;;;7.97;87.24;96744.06;223889;1285;22716;-80
2023/10/27 02:09:59;;;;;;;;;;;;;;;;;;;;;
2023/10/27 02:16:05;;;;;;;;;;;;;;;;;;;;;
2023/10/27 02:21:46;;;;;;;16.50;12.70;;;;;;;7.71;87.47;96726.98;224348;1292;22560;-80
2023/10/27 02:27:40;;;;;;;16.80;13.50;;;;;;;7.65;87.88;96734.49;224206;1294;22555;-80
2023/10/27 02:33:28;;;;;;;18.30;13.70;;;;;;;7.59;87.94;96732.69;224190;1285;22616;-80
2023/10/27 02:45:33;;;;;;;19.70;15.10;;;;;;;7.51;87.99;96721.11;223982;1280;22572;-80
2023/10/27 02:51:49;;;;;;;21.10;15.60;;;;;;;7.47;88.30;96719.05;222809;1300;22784;-81
2023/10/27 02:57:47;;;;;;;18.60;14.80;;;;;;;7.44;88.26;96714.75;222359;1302;22795;-80
2023/10/27 03:03:36;;;;;;;16.60;14.00;;;;;;;7.42;88.52;96710.23;222272;1298;22566;-79
2023/10/27 03:22:57;;;;;;;19.20;14.00;;;;;;;7.31;88.47;96702.20;223777;1294;22601;-80
2023/10/27 03:28:14;;;;;;;18.30;15.00;;;;;;;7.30;88.76;96704.59;224236;1294;22566;-80
2023/10/27 03:34:00;;;;;;;20.00;15.60;;;;;;;7.34;88.98;96698.82;224231;1294;22551;-80
2023/10/27 03:40:01;;;;;;;23.70;16.30;;;;;;;7.44;89.81;96694.34;224169;1294;22679;-80
2023/10/27 03:45:23;;;;;;;23.70;17.30;;;;;;;7.56;90.04;96688.42;224290;1292;22641;-80
2023/10/27 03:51:31;;;;;;;26.10;17.90;;;;;;;7.63;89.72;96690.08;223490;1297;22574;-81
2023/10/27 03:57:01;;;;;;;21.90;17.50;;;;;;;7.64;89.35;96680.45;223724;1297;22565;-80
2023/10/27 04:02:40;;;;;;;;;;;;;;;;;;;;;
2023/10/27 04:08:07;;;;;;;23.50;18.20;;;;;;;7.65;89.24;96669.80;223689;1297;22592;-81
2023/10/27 04:13:22;;;;;;;23.60;17.40;;;;;;;7.67;89.48;96675.36;223397;1295;22559;-80
2023/10/27 04:19:51;;;;;;;26.80;18.60;;;;;;;7.71;89.26;96670.95;223193;1297;22750;-81
2023/10/27 04:25:09;;;;;;;32.70;23.90;;;;;;;7.76;89.38;96662.53;223411;1297;22559;-80
2023/10/27 04:31:30;;;;;;;32.30;21.00;;;;;;;7.85;89.47;96655.08;223539;1297;22568;-81
2023/10/27 04:37:37;;;;;;;31.50;21.90;;;;;;;7.91;89.65;96645.77;223581;1285;22559;-80
2023/10/27 04:43:21;;;;;;;27.50;20.90;;;;;;;7.94;89.64;96645.39;223017;1291;25284;-80
2023/10/27 04:49:11;;;;;;;;;;;;;;;;;;;;;
2023/10/27 04:54:20;;;;;;;25.10;18.90;;;;;;;8.05;89.74;96624.52;223008;1287;22635;-81
2023/10/27 05:00:18;;;;;;;21.70;15.90;;;;;;;8.10;89.76;96619.14;223805;1279;22545;-81
2023/10/27 05:06:33;;;;;;;20.10;16.40;;;;;;;8.17;89.72;96610.14;223524;1297;22680;-81
2023/10/27 05:12:25;;;;;;;;;;;;;;;;;;;;;
2023/10/27 05:18:57;;;;;;;23.40;19.40;;;;;;;8.17;89.25;96604.45;223563;1292;22562;-81
2023/10/27 05:24:57;;;;;;;21.40;17.60;;;;;;;8.14;89.21;96602.52;223330;1290;22547;-81
2023/10/27 05:32:00;;;;;;;;;;;;;;;;;;;;;
2023/10/27 05:37:39;;;;;;;22.20;16.60;;;;;;;8.07;89.24;96602.23;223954;1296;22740;-81
2023/10/27 05:42:54;;;;;;;26.70;18.00;;;;;;;8.05;89.32;96607.11;223782;1294;22594;-81
2023/10/27 05:48:42;;;;;;;;;;;;;;;;;;;;;
2023/10/27 05:54:39;;;;;;;24.90;19.00;;;;;;;8.06;89.51;96618.34;224049;1286;22636;-78
2023/10/27 05:59:54;;;;;;;25.70;18.60;;;;;;;8.05;89.36;96620.89;224009;1286;25293;-74
2023/10/27 06:05:49;;;;;;;22.40;18.10;;;;;;;8.08;89.04;96625.90;224025;1286;25894;-79
2023/10/27 06:12:05;;;;;;;;;;;;;;;;;;;;;
2023/10/27 06:17:46;;;;;;;21.30;16.30;;;;;;;8.22;88.92;96624.40;224095;1286;22563;-80
2023/10/27 06:23:07;;;;;;;22.40;17.30;;;;;;;8.28;89.21;96618.73;224078;1286;22563;-81
2023/10/27 06:28:39;;;;;;;23.00;17.30;;;;;;;8.37;89.15;96612.03;223988;1291;22543;-82
2023/10/27 06:33:50;;;;;;;22.70;17.50;;;;;;;8.49;89.23;96612.73;223919;1283;22589;-80
2023/10/27 06:39:18;;;;;;;22.50;16.30;;;;;;;8.62;89.58;96619.08;223759;1288;22605;-80
2023/10/27 06:44:54;;;;;;;;;;;;;;;;;;;;;
2023/10/27 06:51:07;;;;;;;;;;;;;;;;;;;;;
2023/10/27 06:56:28;;;;;;;24.00;17.40;;;;;;;9.02;89.08;96613.91;223597;1286;22982;-79
2023/10/27 07:01:44;;;;;;;21.80;17.40;;;;;;;9.12;89.27;96612.02;223992;1287;22573;-79
2023/10/27 07:07:10;;;;;;;22.70;16.20;;;;;;;9.18;88.80;96614.27;223999;1289;22562;-79
2023/10/27 07:12:53;;;;;;;21.60;16.20;;;;;;;9.22;89.09;96611.52;223718;1286;22583;-79
2023/10/27 07:18:33;;;;;;;;;;;;;;;;;;;;;
2023/10/27 07:23:53;;;;;;;22.30;16.30;;;;;;;9.35;89.37;96608.16;223851;1276;22609;-79
2023/10/27 07:30:03;;;;;;;21.20;17.20;;;;;;;9.42;89.67;96603.03;223864;1286;22586;-79
2023/10/27 07:36:13;;;;;;;;;;;;;;;;;;;;;
2023/10/27 07:49:25;;;;;;;;;;;;;;;;;;;;;
2023/10/27 07:56:07;;;;;;;;;;;;;;;;;;;;;
2023/10/27 08:02:04;;;;;;;;;;;;;;;;;;;;;
2023/10/27 08:08:47;;;;;;;24.60;18.60;;;;;;;10.34;89.74;96573.00;223378;1289;22569;-80
2023/10/27 08:15:33;;;;;;;23.30;18.00;;;;;;;10.47;89.28;96563.34;223683;1286;22590;-78
2023/10/27 08:21:56;;;;;;;;;;;;;;;;;;;;;
2023/10/27 08:27:31;;;;;;;24.80;19.10;;;;;;;10.55;88.89;96545.65;223823;1286;22561;-78
2023/10/27 08:33:26;;;;;;;;;;;;;;;;;;;;;
2023/10/27 08:38:42;;;;;;;28.60;20.00;;;;;;;10.70;89.53;96514.55;223338;1286;24243;-77
2023/10/27 08:43:58;;;;;;;31.20;23.40;;;;;;;10.84;89.75;96515.67;223522;1286;22607;-77
2023/10/27 08:49:30;;;;;;;36.30;25.90;;;;;;;10.96;89.59;96518.42;223749;1286;22575;-78
2023/10/27 08:54:48;;;;;;;39.90;27.90;;;;;;;11.10;89.60;96521.91;223936;1289;25491;-77
2023/10/27 09:00:08;;;;;;;54.40;33.90;;;;;;;11.17;89.24;96519.14;223885;1294;22668;-77
2023/10/27 09:06:18;;;;;;;54.60;36.20;;;;;;;11.23;89.14;96506.31;223886;1286;22546;-77
2023/10/27 09:12:46;;;;;;;51.80;34.70;;;;;;;11.30;88.88;96495.86;223347;1292;24266;-77
2023/10/27 09:18:36;;;;;;;;;;;;;;;;;;;;;
2023/10/27 09:24:27;;;;;;;;;;;;;;;;;;;;;
2023/10/27 09:30:40;;;;;;;;;;;;;;;;;;;;;
2023/10/27 09:37:43;;;;;;;46.50;31.40;;;;;;;11.47;88.57;96485.14;223351;1292;25258;-82
2023/10/27 09:43:48;;;;;;;42.60;29.80;;;;;;;11.52;88.75;96475.41;223445;1291;23283;-83
2023/10/27 09:50:11;;;;;;;47.70;32.20;;;;;;;11.55;88.68;96467.83;223535;1292;23052;-81
2023/10/27 09:56:29;;;;;;;43.30;30.30;;;;;;;11.60;88.83;96463.73;223694;1286;24247;-81
2023/10/27 10:01:55;;;;;;;39.70;30.40;;;;;;;11.68;88.65;96457.16;223751;1293;22599;-80
2023/10/27 10:07:44;;;;;;;48.50;31.50;;;;;;;11.72;88.68;96451.56;223643;1270;22552;-80
2023/10/27 10:13:12;;;;;;;43.80;30.60;;;;;;;11.77;88.98;96448.34;223877;1291;22563;-77
2023/10/27 10:18:52;;;;;;;41.40;29.70;;;;;;;11.79;88.73;96442.17;223744;1289;22595;-77
2023/10/27 10:24:28;;;;;;;41.50;30.20;;;;;;;11.78;88.85;96434.81;223839;1286;22562;-77
2023/10/27 10:29:37;;;;;;;41.50;28.60;;;;;;;11.77;88.94;96426.33;223882;1289;22722;-77
2023/10/27 10:35:27;;;;;;;40.30;27.80;;;;;;;11.77;89.03;96415.29;223824;1283;22563;-76
2023/10/27 10:40:39;;;;;;;44.90;31.10;;;;;;;11.79;89.26;96407.31;223859;1270;22718;-78
2023/10/27 10:46:02;;;;;;;45.70;32.90;;;;;;;11.79;89.23;96397.73;223889;1289;22699;-80
2023/10/27 10:51:30;;;;;;;53.70;34.40;;;;;;;11.82;89.48;96388.88;223966;1287;22559;-77
2023/10/27 10:57:13;;;;;;;;;;;;;;;;;;;;;
2023/10/27 11:02:26;;;;;;;48.40;33.90;;;;;;;11.93;89.94;96369.63;223843;1289;24941;-77
2023/10/27 11:07:32;;;;;;;43.40;32.60;;;;;;;11.95;89.83;96363.40;223802;1283;24322;-78
2023/10/27 11:13:36;;;;;;;43.40;33.50;;;;;;;11.92;89.70;96362.32;223898;1286;22575;-78
2023/10/27 11:19:02;;;;;;;52.00;36.40;;;;;;;11.87;89.77;96369.33;224052;1289;22585;-77
2023/10/27 11:24:56;;;;;;;;;;;;;;;;;;;;;
2023/10/27 11:30:46;;;;;;;;;;;;;;;;;;;;;
2023/10/27 11:37:00;;;;;;;;;;;;;;;;;;;;;
2023/10/27 11:42:36;;;;;;;41.10;32.40;;;;;;;11.66;90.54;96364.55;223650;1273;22559;-78
2023/10/27 11:47:57;;;;;;;46.70;32.90;;;;;;;11.65;90.59;96364.55;223844;1292;25303;-76
2023/10/27 11:53:44;;;;;;;42.50;31.50;;;;;;;11.65;90.73;96363.86;223986;1294;22584;-77
2023/10/27 11:59:59;;;;;;;41.40;30.30;;;;;;;11.64;90.95;96364.70;224006;1292;22563;-77
2023/10/27 12:06:12;;;;;;;36.50;29.50;;;;;;;11.62;90.98;96365.90;223726;1275;22645;-76
2023/10/27 12:11:50;;;;;;;37.10;29.40;;;;;;;11.60;90.95;96369.05;223694;1289;22587;-78
2023/10/27 12:16:52;;;;;;;42.80;28.70;;;;;;;11.57;91.02;96369.63;223816;1276;23026;-73
2023/10/27 12:21:59;;;;;;;35.60;28.60;;;;;;;11.54;91.22;96368.81;223480;1283;22677;-73
2023/10/27 12:27:25;;;;;;;35.70;27.00;;;;;;;11.52;91.30;96372.55;223348;1273;22555;-75
2023/10/27 12:32:32;;;;;;;34.50;27.00;;;;;;;11.49;91.26;96365.16;223381;1272;22584;-74
2023/10/27 12:37:35;;;;;;;34.60;27.40;;;;;;;11.45;91.37;96368.20;223432;1283;22552;-74
2023/10/27 12:42:39;;;;;;;34.50;26.60;;;;;;;11.40;91.37;96368.23;223464;1292;22584;-75
2023/10/27 12:47:44;;;;;;;37.20;28.10;;;;;;;11.35;91.42;96366.02;223635;1286;22563;-74
2023/10/27 12:52:47;;;;;;;42.60;28.80;;;;;;;11.32;91.53;96364.23;223456;1286;22596;-74
2023/10/27 12:57:58;;;;;;;40.70;29.20;;;;;;;11.29;91.67;96361.09;223430;1292;22605;-73
2023/10/27 13:03:14;;;;;;;38.00;29.00;;;;;;;11.25;91.56;96363.66;223414;1275;22597;-74
2023/10/27 13:08:18;;;;;;;38.80;31.70;;;;;;;11.20;91.58;96367.15;223562;1287;24332;-75
2023/10/27 13:13:21;;;;;;;42.50;32.00;;;;;;;11.13;91.62;96371.10;223584;1272;22579;-76
2023/10/27 13:18:27;;;;;;;40.10;31.90;;;;;;;11.07;91.76;96370.84;223764;1280;24243;-75
2023/10/27 13:23:29;;;;;;;39.70;32.20;;;;;;;11.04;91.87;96371.28;223595;1286;22574;-74
2023/10/27 13:28:32;;;;;;;39.90;30.20;;;;;;;11.01;92.08;96369.39;223700;1276;22686;-75
2023/10/27 13:33:35;;;;;;;41.20;32.60;;;;;;;10.96;92.14;96375.60;223669;1286;22629;-74
2023/10/27 13:38:41;;;;;;;37.90;29.80;;;;;;;10.91;92.06;96392.81;223758;1280;23292;-75
2023/10/27 13:43:47;;;;;;;40.40;32.10;;;;;;;10.86;92.41;96400.68;223148;1280;387239;-74
2023/10/27 13:49:00;;;;;;;39.40;32.90;;;;;;;10.82;92.30;96401.02;223750;1271;22561;-76
2023/10/27 13:54:46;;;;;;;44.30;35.00;;;;;;;10.77;92.29;96401.86;223697;1276;22682;-78
2023/10/27 14:00:54;;;;;;;51.20;35.70;;;;;;;10.69;92.21;96399.86;223799;1280;22581;-81
2023/10/27 14:06:17;;;;;;;;;;;;;;;;;;;;;
2023/10/27 14:12:21;;;;;;;;;;;;;;;;;;;;;
2023/10/27 14:18:14;;;;;;;;;;;;;;;;;;;;;
2023/10/27 14:24:22;;;;;;;41.30;33.40;;;;;;;10.52;92.63;96423.39;224302;1293;22593;-80
2023/10/27 14:30:07;;;;;;;;;;;;;;;;;;;;;
2023/10/27 14:35:25;;;;;;;38.80;31.80;;;;;;;10.45;92.66;96436.23;224398;1293;22585;-79
2023/10/27 14:41:35;;;;;;;40.50;32.40;;;;;;;10.42;92.76;96443.46;224347;1293;25373;-80
2023/10/27 14:47:31;;;;;;;40.70;32.90;;;;;;;10.37;92.82;96460.84;224410;1294;22566;-80
2023/10/27 14:53:00;;;;;;;42.80;33.20;;;;;;;10.34;92.89;96463.69;224386;1294;22601;-81
2023/10/27 14:58:36;;;;;;;36.70;30.40;;;;;;;10.31;92.84;96475.41;224417;1294;22594;-80
2023/10/27 15:03:47;;;;;;;36.00;29.30;;;;;;;10.23;92.70;96478.85;224297;1294;22574;-80
2023/10/27 15:10:24;;;;;;;;;;;;;;;;;;;;;
2023/10/27 15:15:51;;;;;;;30.60;26.20;;;;;;;10.13;92.92;96485.98;224270;1294;25790;-79
2023/10/27 15:21:17;;;;;;;32.60;25.00;;;;;;;10.07;93.12;96501.21;224438;1293;22570;-79
2023/10/27 15:26:45;;;;;;;;;;;;;;;;;;;;;
2023/10/27 15:32:50;;;;;;;32.10;25.80;;;;;;;10.00;93.33;96519.88;224439;1293;22559;-79
2023/10/27 15:38:57;;;;;;;31.80;25.40;;;;;;;9.98;93.18;96532.34;223554;1294;22562;-79
2023/10/27 15:44:18;;;;;;;29.00;23.90;;;;;;;9.95;93.29;96543.01;224259;1292;24238;-78
2023/10/27 15:49:28;;;;;;;25.40;21.40;;;;;;;9.92;93.37;96548.62;224364;1293;22585;-79
2023/10/27 15:54:31;;;;;;;23.10;19.30;;;;;;;9.86;93.39;96551.69;224354;1292;22579;-79
2023/10/27 15:59:47;;;;;;;;;;;;;;;;;;;;;
2023/10/27 16:05:58;;;;;;;21.80;18.50;;;;;;;9.75;93.44;96562.84;224341;1294;25085;-79
2023/10/27 16:11:23;;;;;;;19.40;17.30;;;;;;;9.69;93.42;96568.94;224334;1294;22592;-79
2023/10/27 16:17:51;;;;;;;19.90;17.80;;;;;;;9.65;93.54;96573.50;224296;1293;24237;-79
2023/10/27 16:23:28;;;;;;;;;;;;;;;;;;;;;
2023/10/27 16:29:33;;;;;;;;;;;;;;;;;;;;;
2023/10/27 16:36:01;;;;;;;;;;;;;;;;;;;;;
2023/10/27 16:42:44;;;;;;;16.60;14.80;;;;;;;9.56;93.49;96591.70;223515;1293;22578;-79
2023/10/27 16:47:54;;;;;;;22.40;18.50;;;;;;;9.56;93.85;96603.71;224403;1290;22594;-80
2023/10/27 16:54:07;;;;;;;25.00;19.80;;;;;;;9.56;93.40;96603.92;224374;1293;22765;-80
2023/10/27 17:00:22;;;;;;;24.00;19.90;;;;;;;9.55;93.85;96608.44;223375;1298;22562;-79
2023/10/27 17:06:08;;;;;;;28.30;24.00;;;;;;;9.54;93.85;96616.80;223464;1298;22588;-79
2023/10/27 17:11:53;;;;;;;26.70;23.60;;;;;;;9.57;94.00;96625.40;223421;1297;22582;-80
2023/10/27 17:18:13;;;;;;;;;;;;;;;;;;;;;
2023/10/27 17:24:34;;;;;;;;;;;;;;;;;;;;;
2023/10/27 17:31:21;;;;;;;30.00;25.80;;;;;;;9.57;93.43;96645.79;221739;1304;25373;-79
2023/10/27 17:36:52;;;;;;;31.90;25.30;;;;;;;9.55;93.78;96648.05;222752;1300;24488;-80
2023/10/27 17:42:38;;;;;;;31.80;27.40;;;;;;;9.55;93.64;96655.67;224435;1286;23957;-79
2023/10/27 17:48:12;;;;;;;33.30;27.80;;;;;;;9.56;93.77;96658.17;224425;1293;22581;-80
2023/10/27 17:53:40;;;;;;;30.90;25.60;;;;;;;9.56;93.69;96665.88;224400;1293;23072;-80
2023/10/27 17:59:22;;;;;;;29.80;25.10;;;;;;;9.55;93.77;96673.93;224297;1293;22662;-79
2023/10/27 18:05:04;;;;;;;32.50;25.10;;;;;;;9.54;93.84;96679.18;224387;1294;22614;-79
2023/10/27 18:11:24;;;;;;;28.20;23.40;;;;;;;9.54;94.03;96671.14;224235;1293;22573;-80
2023/10/27 18:16:58;;;;;;;29.80;24.10;;;;;;;9.54;94.01;96675.33;224391;1293;25410;-79
2023/10/27 18:22:27;;;;;;;28.90;22.40;;;;;;;9.57;93.98;96676.91;224260;1292;22571;-80
2023/10/27 18:28:17;;;;;;;;;;;;;;;;;;;;;
2023/10/27 18:34:38;;;;;;;;;;;;;;;;;;;;;
2023/10/27 18:40:23;;;;;;;24.90;20.10;;;;;;;9.56;93.87;96686.12;224131;1292;22680;-78
2023/10/27 18:46:42;;;;;;;;;;;;;;;;;;;;;
2023/10/27 18:53:39;;;;;;;;;;;;;;;;;;;;;
2023/10/27 19:00:06;;;;;;;24.80;20.80;;;;;;;9.44;93.57;96710.08;223848;1288;22743;-81
2023/10/27 19:05:58;;;;;;;;;;;;;;;;;;;;;
2023/10/27 19:11:59;;;;;;;;;;;;;;;;;;;;;
2023/10/27 19:18:05;;;;;;;24.90;21.20;;;;;;;9.37;93.72;96729.94;223654;1297;22565;-80
2023/10/27 19:23:25;;;;;;;30.50;23.70;;;;;;;9.40;93.76;96733.91;223502;1297;22591;-80
2023/10/27 19:29:47;;;;;;;;;;;;;;;;;;;;;
2023/10/27 19:35:52;;;;;;;;;;;;;;;;;;;;;
2023/10/27 19:42:24;;;;;;;51.00;32.80;;;;;;;9.36;93.98;96750.75;223606;1297;22639;-80
2023/10/27 19:48:31;;;;;;;;;;;;;;;;;;;;;
2023/10/27 19:54:18;;;;;;;42.90;29.60;;;;;;;9.34;93.71;96769.58;223262;1295;22553;-80
2023/10/27 20:00:14;;;;;;;;;;;;;;;;;;;;;
2023/10/27 20:05:49;;;;;;;36.90;25.80;;;;;;;9.29;93.88;96780.48;224172;1294;22589;-79
2023/10/27 20:11:50;;;;;;;37.20;26.90;;;;;;;9.25;93.80;96783.55;224427;1294;22559;-79
2023/10/27 20:17:27;;;;;;;;;;;;;;;;;;;;;
2023/10/27 20:23:04;;;;;;;29.20;22.20;;;;;;;9.24;94.06;96794.03;224470;1293;22582;-79
2023/10/27 20:28:12;;;;;;;26.50;21.50;;;;;;;9.23;94.00;96798.88;224435;1294;22562;-79
2023/10/27 20:33:17;;;;;;;29.90;22.60;;;;;;;9.23;94.22;96796.35;224276;1292;22567;-79
2023/10/27 20:38:39;;;;;;;30.10;23.50;;;;;;;9.24;94.30;96807.64;224284;1294;22592;-79
2023/10/27 20:43:58;;;;;;;27.90;21.40;;;;;;;9.24;94.02;96808.54;224390;1294;22559;-79
2023/10/27 20:49:36;;;;;;;29.90;22.70;;;;;;;9.22;94.29;96809.17;224344;1294;22758;-78
2023/10/27 20:55:01;;;;;;;31.40;24.30;;;;;;;9.22;94.39;96818.93;224399;1294;22550;-79
2023/10/27 21:06:45;;;;;;;26.50;21.30;;;;;;;9.21;94.09;96834.03;224402;1270;22582;-79
2023/10/27 21:12:04;;;;;;;28.40;21.40;;;;;;;9.17;94.12;96841.45;224253;1294;22766;-79
2023/10/27 21:17:08;;;;;;;29.00;23.30;;;;;;;9.13;94.21;96848.03;224253;1289;22708;-79
2023/10/27 21:22:31;;;;;;;31.50;24.00;;;;;;;9.10;94.23;96858.33;224387;1293;22617;-79
2023/10/27 21:27:51;;;;;;;32.50;23.80;;;;;;;9.07;94.26;96865.34;224292;1293;22562;-79
2023/10/27 21:33:09;;;;;;;35.00;25.00;;;;;;;9.03;94.37;96880.02;224470;1289;22557;-79
2023/10/27 21:38:23;;;;;;;38.30;25.30;;;;;;;9.03;94.66;96891.02;224438;1294;25304;-79
2023/10/27 21:43:47;;;;;;;34.20;23.70;;;;;;;9.05;94.55;96894.81;224431;1293;22559;-79
2023/10/27 21:49:04;;;;;;;32.10;24.90;;;;;;;9.04;94.53;96904.64;224507;1294;22591;-79
2023/10/27 21:54:14;;;;;;;39.90;27.30;;;;;;;9.02;94.24;96907.21;224183;1293;22564;-79
2023/10/27 22:00:34;;;;;;;36.80;26.70;;;;;;;9.00;94.35;96904.33;224395;1293;22554;-79
2023/10/27 22:05:49;;;;;;;41.00;27.40;;;;;;;8.96;94.43;96911.42;224416;1294;22599;-79
2023/10/27 22:11:41;;;;;;;;;;;;;;;;;;;;;
2023/10/27 22:17:39;;;;;;;35.80;26.20;;;;;;;8.95;94.38;96930.10;224425;1294;25506;-79
2023/10/27 22:22:59;;;;;;;;;;;;;;;;;;;;;
2023/10/27 22:30:08;;;;;;;34.20;26.00;;;;;;;8.99;94.75;96947.65;224195;1294;22596;-78
2023/10/27 22:35:55;;;;;;;30.00;22.90;;;;;;;9.02;94.67;96956.81;224391;1293;22559;-78
2023/10/27 22:41:33;;;;;;;33.40;25.20;;;;;;;9.05;94.79;96966.45;224366;1293;22592;-78
2023/10/27 22:47:47;;;;;;;28.70;23.20;;;;;;;9.10;94.98;96975.50;224268;1293;22569;-78
2023/10/27 22:54:00;;;;;;;26.40;21.00;;;;;;;9.14;94.64;96974.77;224441;1293;22542;-79
2023/10/27 22:59:27;;;;;;;27.00;21.50;;;;;;;9.16;94.76;96978.42;224389;1294;22592;-78
2023/10/27 23:04:49;;;;;;;23.80;18.10;;;;;;;9.18;94.75;96984.96;224379;1282;22700;-78
2023/10/27 23:10:00;;;;;;;23.90;18.70;;;;;;;9.20;94.76;97001.21;224469;1294;22607;-79
2023/10/27 23:15:16;;;;;;;25.70;20.30;;;;;;;9.19;94.39;97005.74;224304;1293;22601;-79
2023/10/27 23:20:44;;;;;;;24.20;19.90;;;;;;;9.19;94.48;97008.32;224457;1293;25293;-78
2023/10/27 23:26:11;;;;;;;28.20;23.30;;;;;;;9.19;94.51;97007.10;224272;1294;23791;-79
2023/10/27 23:31:42;;;;;;;25.10;19.80;;;;;;;9.22;94.60;97005.62;224250;1293;26130;-79
2023/10/27 23:37:49;;;;;;;;;;;;;;;;;;;;;
2023/10/27 23:44:44;;;;;;;23.40;18.90;;;;;;;9.14;94.61;97019.23;224384;1293;23255;-79
2023/10/27 23:50:19;;;;;;;25.90;19.40;;;;;;;9.08;94.61;97028.40;224368;1288;24247;-79
2023/10/27 23:56:42;;;;;;;21.20;17.20;;;;;;;9.05;94.16;97033.48;224283;1293;24260;-79
